sensor_id;sensor_type;location;lat;lon;timestamp;pressure;altitude;pressure_sealevel;temperature;humidity
26719;BME280;14326;50.794;6.060;2022-07-23T00:00:05;99838.03;;;17.86;100.00
26719;BME280;14326;50.794;6.060;2022-07-23T00:02:32;99829.88;;;17.91;100.00
26719;BME280;14326;50.794;6.060;2022-07-23T00:04:59;99843.59;;;17.77;100.00
26719;BME280;14326;50.794;6.060;2022-07-23T00:07:25;99835.59;;;17.73;100.00
26719;BME280;14326;50.794;6.060;2022-07-23T00:09:52;99820.38;;;17.70;100.00
26719;BME280;14326;50.794;6.060;2022-07-23T00:12:20;99816.72;;;17.74;100.00
26719;BME280;14326;50.794;6.060;2022-07-23T00:14:48;99815.88;;;17.72;100.00
26719;BME280;14326;50.794;6.060;2022-07-23T00:17:15;99814.91;;;17.75;100.00
26719;BME280;14326;50.794;6.060;2022-07-23T00:19:41;99813.97;;;17.79;100.00
26719;BME280;14326;50.794;6.060;2022-07-23T00:22:08;99822.84;;;17.84;100.00
26719;BME280;14326;50.794;6.060;2022-07-23T00:24:35;99829.94;;;17.89;100.00
26719;BME280;14326;50.794;6.060;2022-07-23T00:27:01;99823.56;;;17.93;100.00
26719;BME280;14326;50.794;6.060;2022-07-23T00:29:29;99821.81;;;17.91;100.00
26719;BME280;14326;50.794;6.060;2022-07-23T00:31:57;99820.00;;;17.91;100.00
26719;BME280;14326;50.794;6.060;2022-07-23T00:34:23;99821.06;;;17.83;100.00
26719;BME280;14326;50.794;6.060;2022-07-23T00:36:50;99825.56;;;17.82;100.00
26719;BME280;14326;50.794;6.060;2022-07-23T00:39:19;99825.59;;;17.79;100.00
26719;BME280;14326;50.794;6.060;2022-07-23T00:41:46;99830.03;;;17.82;100.00
26719;BME280;14326;50.794;6.060;2022-07-23T00:44:18;99830.13;;;17.79;100.00
26719;BME280;14326;50.794;6.060;2022-07-23T00:46:46;99834.63;;;17.75;100.00
26719;BME280;14326;50.794;6.060;2022-07-23T00:49:15;99831.06;;;17.73;100.00
26719;BME280;14326;50.794;6.060;2022-07-23T00:51:42;99824.03;;;17.66;100.00
26719;BME280;14326;50.794;6.060;2022-07-23T00:54:09;99825.91;;;17.61;100.00
26719;BME280;14326;50.794;6.060;2022-07-23T00:56:36;99820.47;;;17.64;100.00
26719;BME280;14326;50.794;6.060;2022-07-23T00:59:03;99832.03;;;17.71;100.00
26719;BME280;14326;50.794;6.060;2022-07-23T01:01:30;99830.25;;;17.68;100.00
26719;BME280;14326;50.794;6.060;2022-07-23T01:03:57;99832.06;;;17.68;100.00
26719;BME280;14326;50.794;6.060;2022-07-23T01:06:25;99833.94;;;17.64;100.00
26719;BME280;14326;50.794;6.060;2022-07-23T01:08:53;99826.72;;;17.66;100.00
26719;BME280;14326;50.794;6.060;2022-07-23T01:11:20;99832.13;;;17.65;100.00
26719;BME280;14326;50.794;6.060;2022-07-23T01:13:47;99831.25;;;17.64;100.00
26719;BME280;14326;50.794;6.060;2022-07-23T01:16:14;99824.06;;;17.63;100.00
26719;BME280;14326;50.794;6.060;2022-07-23T01:18:40;99816.94;;;17.59;100.00
26719;BME280;14326;50.794;6.060;2022-07-23T01:21:08;99815.16;;;17.58;100.00
26719;BME280;14326;50.794;6.060;2022-07-23T01:23:39;99808.94;;;17.54;100.00
26719;BME280;14326;50.794;6.060;2022-07-23T01:26:06;99816.25;;;17.46;100.00
26719;BME280;14326;50.794;6.060;2022-07-23T01:28:33;99815.44;;;17.41;100.00
26719;BME280;14326;50.794;6.060;2022-07-23T01:30:59;99811.88;;;17.38;100.00
26719;BME280;14326;50.794;6.060;2022-07-23T01:33:26;99813.72;;;17.36;100.00
26719;BME280;14326;50.794;6.060;2022-07-23T01:35:53;99808.34;;;17.36;100.00
26719;BME280;14326;50.794;6.060;2022-07-23T01:38:19;99795.88;;;17.32;100.00
26719;BME280;14326;50.794;6.060;2022-07-23T01:40:47;99797.72;;;17.27;100.00
26719;BME280;14326;50.794;6.060;2022-07-23T01:43:14;99796.88;;;17.23;100.00
26719;BME280;14326;50.794;6.060;2022-07-23T01:45:41;99793.38;;;17.18;100.00
26719;BME280;14326;50.794;6.060;2022-07-23T01:48:09;99799.69;;;17.15;100.00
26719;BME280;14326;50.794;6.060;2022-07-23T01:50:36;99799.91;;;17.02;100.00
26719;BME280;14326;50.794;6.060;2022-07-23T01:53:02;99798.13;;;16.98;100.00
26719;BME280;14326;50.794;6.060;2022-07-23T01:55:29;99795.44;;;16.99;100.00
26719;BME280;14326;50.794;6.060;2022-07-23T01:57:57;99787.44;;;16.95;100.00
26719;BME280;14326;50.794;6.060;2022-07-23T02:00:23;99786.63;;;16.90;100.00
26719;BME280;14326;50.794;6.060;2022-07-23T02:02:50;99782.19;;;16.86;100.00
26719;BME280;14326;50.794;6.060;2022-07-23T02:05:16;99793.81;;;16.88;100.00
26719;BME280;14326;50.794;6.060;2022-07-23T02:07:43;99797.41;;;16.85;100.00
26719;BME280;14326;50.794;6.060;2022-07-23T02:10:10;99795.59;;;16.89;100.00
26719;BME280;14326;50.794;6.060;2022-07-23T02:12:36;99786.72;;;16.82;100.00
26719;BME280;14326;50.794;6.060;2022-07-23T02:15:06;99782.31;;;16.76;100.00
26719;BME280;14326;50.794;6.060;2022-07-23T02:17:33;99786.81;;;16.74;100.00
26719;BME280;14326;50.794;6.060;2022-07-23T02:19:59;99794.88;;;16.73;100.00
26719;BME280;14326;50.794;6.060;2022-07-23T02:22:26;99786.06;;;16.65;100.00
26719;BME280;14326;50.794;6.060;2022-07-23T02:24:53;99793.16;;;16.69;100.00
26719;BME280;14326;50.794;6.060;2022-07-23T02:27:19;99793.22;;;16.66;100.00
26719;BME280;14326;50.794;6.060;2022-07-23T02:29:46;99788.75;;;16.63;100.00
26719;BME280;14326;50.794;6.060;2022-07-23T02:32:14;99792.38;;;16.61;100.00
26719;BME280;14326;50.794;6.060;2022-07-23T02:34:41;99795.06;;;16.58;100.00
26719;BME280;14326;50.794;6.060;2022-07-23T02:37:07;99793.31;;;16.54;100.00
26719;BME280;14326;50.794;6.060;2022-07-23T02:39:34;99799.63;;;16.50;100.00
26719;BME280;14326;50.794;6.060;2022-07-23T02:42:01;99802.31;;;16.50;100.00
26719;BME280;14326;50.794;6.060;2022-07-23T02:44:27;99804.13;;;16.49;100.00
26719;BME280;14326;50.794;6.060;2022-07-23T02:46:54;99804.16;;;16.45;100.00
26719;BME280;14326;50.794;6.060;2022-07-23T02:49:23;99804.22;;;16.40;100.00
26719;BME280;14326;50.794;6.060;2022-07-23T02:51:50;99799.88;;;16.30;100.00
26719;BME280;14326;50.794;6.060;2022-07-23T02:54:16;99807.03;;;16.26;100.00
26719;BME280;14326;50.794;6.060;2022-07-23T02:56:43;99801.66;;;16.28;100.00
26719;BME280;14326;50.794;6.060;2022-07-23T02:59:10;99805.25;;;16.27;100.00
26719;BME280;14326;50.794;6.060;2022-07-23T03:01:37;99801.72;;;16.22;100.00
26719;BME280;14326;50.794;6.060;2022-07-23T03:04:03;99801.69;;;16.26;100.00
26719;BME280;14326;50.794;6.060;2022-07-23T03:06:31;99800.81;;;16.24;100.00
26719;BME280;14326;50.794;6.060;2022-07-23T03:08:58;99795.47;;;16.21;100.00
26719;BME280;14326;50.794;6.060;2022-07-23T03:11:25;99795.53;;;16.15;100.00
26719;BME280;14326;50.794;6.060;2022-07-23T03:13:52;99803.63;;;16.12;100.00
26719;BME280;14326;50.794;6.060;2022-07-23T03:16:18;99800.06;;;16.12;100.00
26719;BME280;14326;50.794;6.060;2022-07-23T03:18:45;99797.44;;;16.07;100.00
26719;BME280;14326;50.794;6.060;2022-07-23T03:21:11;99801.00;;;16.06;100.00
26719;BME280;14326;50.794;6.060;2022-07-23T03:23:39;99810.91;;;16.00;100.00
26719;BME280;14326;50.794;6.060;2022-07-23T03:26:06;99809.19;;;15.95;100.00
26719;BME280;14326;50.794;6.060;2022-07-23T03:28:33;99808.25;;;15.96;100.00
26719;BME280;14326;50.794;6.060;2022-07-23T03:30:59;99803.81;;;15.92;100.00
26719;BME280;14326;50.794;6.060;2022-07-23T03:33:26;99812.81;;;15.88;100.00
26719;BME280;14326;50.794;6.060;2022-07-23T03:35:53;99805.63;;;15.92;100.00
26719;BME280;14326;50.794;6.060;2022-07-23T03:38:20;99812.75;;;15.93;100.00
26719;BME280;14326;50.794;6.060;2022-07-23T03:40:49;99804.81;;;15.84;100.00
26719;BME280;14326;50.794;6.060;2022-07-23T03:43:16;99801.25;;;15.79;100.00
26719;BME280;14326;50.794;6.060;2022-07-23T03:45:42;99809.28;;;15.82;100.00
26719;BME280;14326;50.794;6.060;2022-07-23T03:48:09;99819.13;;;15.81;100.00
26719;BME280;14326;50.794;6.060;2022-07-23T03:50:35;99811.94;;;15.85;100.00
26719;BME280;14326;50.794;6.060;2022-07-23T03:53:02;99812.88;;;15.84;100.00
26719;BME280;14326;50.794;6.060;2022-07-23T03:55:29;99807.50;;;15.79;100.00
26719;BME280;14326;50.794;6.060;2022-07-23T03:57:57;99823.66;;;15.78;100.00
26719;BME280;14326;50.794;6.060;2022-07-23T04:00:23;99812.03;;;15.73;100.00
26719;BME280;14326;50.794;6.060;2022-07-23T04:02:50;99823.66;;;15.73;100.00
26719;BME280;14326;50.794;6.060;2022-07-23T04:05:17;99819.22;;;15.71;100.00
26719;BME280;14326;50.794;6.060;2022-07-23T04:07:43;99822.81;;;15.68;100.00
26719;BME280;14326;50.794;6.060;2022-07-23T04:10:10;99821.91;;;15.69;100.00
26719;BME280;14326;50.794;6.060;2022-07-23T04:12:37;99828.13;;;15.73;100.00
26719;BME280;14326;50.794;6.060;2022-07-23T04:15:07;99827.22;;;15.77;100.00
26719;BME280;14326;50.794;6.060;2022-07-23T04:17:34;99833.44;;;15.82;100.00
26719;BME280;14326;50.794;6.060;2022-07-23T04:20:01;99837.06;;;15.78;100.00
26719;BME280;14326;50.794;6.060;2022-07-23T04:22:27;99837.91;;;15.80;100.00
26719;BME280;14326;50.794;6.060;2022-07-23T04:24:54;99838.81;;;15.82;100.00
26719;BME280;14326;50.794;6.060;2022-07-23T04:27:21;99842.38;;;15.81;100.00
26719;BME280;14326;50.794;6.060;2022-07-23T04:29:47;99847.75;;;15.82;100.00
26719;BME280;14326;50.794;6.060;2022-07-23T04:32:15;99844.13;;;15.85;100.00
26719;BME280;14326;50.794;6.060;2022-07-23T04:34:42;99845.84;;;15.90;100.00
26719;BME280;14326;50.794;6.060;2022-07-23T04:37:09;99853.00;;;15.96;100.00
26719;BME280;14326;50.794;6.060;2022-07-23T04:39:35;99858.31;;;16.01;100.00
26719;BME280;14326;50.794;6.060;2022-07-23T04:42:02;99852.84;;;16.08;100.00
26719;BME280;14326;50.794;6.060;2022-07-23T04:44:29;99857.31;;;16.09;100.00
26719;BME280;14326;50.794;6.060;2022-07-23T04:46:55;99861.81;;;16.09;100.00
26719;BME280;14326;50.794;6.060;2022-07-23T04:49:23;99865.38;;;16.09;100.00
26719;BME280;14326;50.794;6.060;2022-07-23T04:51:50;99868.00;;;16.15;100.00
26719;BME280;14326;50.794;6.060;2022-07-23T04:54:17;99855.41;;;16.23;100.00
26719;BME280;14326;50.794;6.060;2022-07-23T04:56:43;99857.06;;;16.35;100.00
26719;BME280;14326;50.794;6.060;2022-07-23T04:59:10;99867.75;;;16.43;100.00
26719;BME280;14326;50.794;6.060;2022-07-23T05:01:37;99870.31;;;16.55;100.00
26719;BME280;14326;50.794;6.060;2022-07-23T05:04:03;99871.13;;;16.61;100.00
26719;BME280;14326;50.794;6.060;2022-07-23T05:06:31;99873.78;;;16.66;100.00
26719;BME280;14326;50.794;6.060;2022-07-23T05:08:58;99874.63;;;16.71;100.00
26719;BME280;14326;50.794;6.060;2022-07-23T05:11:25;99869.09;;;16.83;100.00
26719;BME280;14326;50.794;6.060;2022-07-23T05:13:51;99870.75;;;16.93;100.00
26719;BME280;14326;50.794;6.060;2022-07-23T05:16:18;99867.13;;;16.97;100.00
26719;BME280;14326;50.794;6.060;2022-07-23T05:18:44;99869.78;;;17.00;100.00
26719;BME280;14326;50.794;6.060;2022-07-23T05:21:11;99870.63;;;17.04;100.00
26719;BME280;14326;50.794;6.060;2022-07-23T05:23:39;99871.41;;;17.13;100.00
26719;BME280;14326;50.794;6.060;2022-07-23T05:26:06;99873.13;;;17.19;100.00
26719;BME280;14326;50.794;6.060;2022-07-23T05:28:32;99873.94;;;17.26;100.00
26719;BME280;14326;50.794;6.060;2022-07-23T05:30:59;99874.78;;;17.28;100.00
26719;BME280;14326;50.794;6.060;2022-07-23T05:33:25;99868.50;;;17.30;100.00
26719;BME280;14326;50.794;6.060;2022-07-23T05:35:52;99880.16;;;17.29;100.00
26719;BME280;14326;50.794;6.060;2022-07-23T05:38:19;99885.44;;;17.35;100.00
26719;BME280;14326;50.794;6.060;2022-07-23T05:40:47;99889.78;;;17.44;100.00
26719;BME280;14326;50.794;6.060;2022-07-23T05:43:13;99889.69;;;17.51;100.00
26719;BME280;14326;50.794;6.060;2022-07-23T05:45:40;99892.25;;;17.59;100.00
26719;BME280;14326;50.794;6.060;2022-07-23T05:48:06;99897.50;;;17.71;100.00
26719;BME280;14326;50.794;6.060;2022-07-23T05:50:33;99893.63;;;17.89;100.00
26719;BME280;14326;50.794;6.060;2022-07-23T05:53:00;99898.84;;;17.99;100.00
26719;BME280;14326;50.794;6.060;2022-07-23T05:55:27;99892.44;;;18.08;100.00
26719;BME280;14326;50.794;6.060;2022-07-23T05:57:56;99900.31;;;18.19;100.00
26719;BME280;14326;50.794;6.060;2022-07-23T06:00:22;99900.09;;;18.31;100.00
26719;BME280;14326;50.794;6.060;2022-07-23T06:02:50;99899.88;;;18.43;100.00
26719;BME280;14326;50.794;6.060;2022-07-23T06:05:16;99895.94;;;18.62;100.00
26719;BME280;14326;50.794;6.060;2022-07-23T06:07:43;99890.06;;;18.87;100.00
26719;BME280;14326;50.794;6.060;2022-07-23T06:10:10;99898.78;;;19.01;100.00
26719;BME280;14326;50.794;6.060;2022-07-23T06:12:38;99897.66;;;19.11;100.00
26719;BME280;14326;50.794;6.060;2022-07-23T06:15:08;99900.09;;;19.23;100.00
26719;BME280;14326;50.794;6.060;2022-07-23T06:17:34;99895.75;;;19.16;99.41
26719;BME280;14326;50.794;6.060;2022-07-23T06:20:01;99899.22;;;19.22;100.00
26719;BME280;14326;50.794;6.060;2022-07-23T06:22:28;99899.88;;;19.32;100.00
26719;BME280;14326;50.794;6.060;2022-07-23T06:24:54;99899.44;;;19.55;100.00
26719;BME280;14326;50.794;6.060;2022-07-23T06:27:21;99902.09;;;19.56;97.38
26719;BME280;14326;50.794;6.060;2022-07-23T06:29:48;99902.91;;;19.60;96.82
26719;BME280;14326;50.794;6.060;2022-07-23T06:32:16;99910.31;;;19.50;98.09
26719;BME280;14326;50.794;6.060;2022-07-23T06:34:42;99916.78;;;19.42;99.49
26719;BME280;14326;50.794;6.060;2022-07-23T06:37:09;99907.81;;;19.41;99.40
26719;BME280;14326;50.794;6.060;2022-07-23T06:39:35;99918.69;;;19.37;99.12
26719;BME280;14326;50.794;6.060;2022-07-23T06:42:02;99916.06;;;19.32;99.75
26719;BME280;14326;50.794;6.060;2022-07-23T06:44:29;99918.88;;;19.28;100.00
26719;BME280;14326;50.794;6.060;2022-07-23T06:46:55;99926.38;;;19.13;100.00
26719;BME280;14326;50.794;6.060;2022-07-23T06:49:23;99924.84;;;19.00;100.00
26719;BME280;14326;50.794;6.060;2022-07-23T06:51:50;99926.47;;;19.09;100.00
26719;BME280;14326;50.794;6.060;2022-07-23T06:54:16;99926.31;;;19.16;100.00
26719;BME280;14326;50.794;6.060;2022-07-23T06:56:43;99923.75;;;19.10;100.00
26719;BME280;14326;50.794;6.060;2022-07-23T06:59:10;99928.13;;;19.16;100.00
26719;BME280;14326;50.794;6.060;2022-07-23T07:01:36;99923.22;;;19.36;100.00
26719;BME280;14326;50.794;6.060;2022-07-23T07:04:03;99929.16;;;19.53;96.89
26719;BME280;14326;50.794;6.060;2022-07-23T07:06:31;99925.34;;;19.62;99.43
26719;BME280;14326;50.794;6.060;2022-07-23T07:08:58;99929.78;;;19.65;98.43
26719;BME280;14326;50.794;6.060;2022-07-23T07:11:24;99928.53;;;19.79;98.89
26719;BME280;14326;50.794;6.060;2022-07-23T07:13:51;99936.31;;;19.93;95.67
26719;BME280;14326;50.794;6.060;2022-07-23T07:16:18;99943.19;;;20.08;95.11
26719;BME280;14326;50.794;6.060;2022-07-23T07:18:44;99936.47;;;20.24;93.03
26719;BME280;14326;50.794;6.060;2022-07-23T07:21:11;99939.56;;;20.44;89.36
26719;BME280;14326;50.794;6.060;2022-07-23T07:23:39;99947.88;;;20.72;85.75
26719;BME280;14326;50.794;6.060;2022-07-23T07:26:06;99942.31;;;21.09;82.88
26719;BME280;14326;50.794;6.060;2022-07-23T07:28:32;99943.25;;;21.70;81.30
26719;BME280;14326;50.794;6.060;2022-07-23T07:30:59;99945.06;;;21.98;80.47
26719;BME280;14326;50.794;6.060;2022-07-23T07:33:25;99943.44;;;22.21;80.54
26719;BME280;14326;50.794;6.060;2022-07-23T07:35:52;99946.47;;;22.12;80.40
26719;BME280;14326;50.794;6.060;2022-07-23T07:38:19;99947.81;;;22.51;79.70
26719;BME280;14326;50.794;6.060;2022-07-23T07:40:47;99952.66;;;22.43;79.95
26719;BME280;14326;50.794;6.060;2022-07-23T07:43:13;99956.16;;;22.45;79.75
26719;BME280;14326;50.794;6.060;2022-07-23T07:45:40;99958.72;;;22.23;80.40
26719;BME280;14326;50.794;6.060;2022-07-23T07:48:07;99960.16;;;22.07;77.61
26719;BME280;14326;50.794;6.060;2022-07-23T07:50:33;99965.03;;;21.94;78.37
26719;BME280;14326;50.794;6.060;2022-07-23T07:53:00;99969.91;;;22.13;81.81
26719;BME280;14326;50.794;6.060;2022-07-23T07:55:26;99977.50;;;22.01;80.38
26719;BME280;14326;50.794;6.060;2022-07-23T07:57:55;99961.13;;;22.04;78.92
26719;BME280;14326;50.794;6.060;2022-07-23T08:00:21;99969.53;;;22.25;79.50
26719;BME280;14326;50.794;6.060;2022-07-23T08:02:50;99973.66;;;22.36;77.24
26719;BME280;14326;50.794;6.060;2022-07-23T08:05:21;99979.03;;;22.38;79.27
26719;BME280;14326;50.794;6.060;2022-07-23T08:07:48;99974.75;;;22.03;81.92
26719;BME280;14326;50.794;6.060;2022-07-23T08:10:15;99980.22;;;21.71;78.14
26719;BME280;14326;50.794;6.060;2022-07-23T08:12:43;99974.88;;;21.98;80.96
26719;BME280;14326;50.794;6.060;2022-07-23T08:15:13;99976.19;;;22.15;79.06
26719;BME280;14326;50.794;6.060;2022-07-23T08:17:40;99977.72;;;22.50;74.70
26719;BME280;14326;50.794;6.060;2022-07-23T08:20:08;99969.84;;;22.95;78.33
26719;BME280;14326;50.794;6.060;2022-07-23T08:22:46;99978.41;;;22.82;74.31
26719;BME280;14326;50.794;6.060;2022-07-23T08:25:14;99986.31;;;22.90;76.96
26719;BME280;14326;50.794;6.060;2022-07-23T08:27:41;99978.88;;;23.20;77.34
26719;BME280;14326;50.794;6.060;2022-07-23T08:30:09;99980.88;;;23.15;75.25
26719;BME280;14326;50.794;6.060;2022-07-23T08:32:51;99984.97;;;23.02;73.69
26719;BME280;14326;50.794;6.060;2022-07-23T08:35:22;99985.88;;;22.76;74.09
26719;BME280;14326;50.794;6.060;2022-07-23T08:37:49;99992.97;;;22.80;74.20
26719;BME280;14326;50.794;6.060;2022-07-23T08:40:15;99987.41;;;22.84;72.55
26719;BME280;14326;50.794;6.060;2022-07-23T08:42:42;99987.44;;;22.83;70.23
26719;BME280;14326;50.794;6.060;2022-07-23T08:45:09;99985.63;;;23.33;71.78
26719;BME280;14326;50.794;6.060;2022-07-23T08:47:37;99987.88;;;22.97;67.47
26719;BME280;14326;50.794;6.060;2022-07-23T08:50:07;99984.97;;;23.02;70.26
26719;BME280;14326;50.794;6.060;2022-07-23T08:52:34;99993.00;;;23.30;65.93
26719;BME280;14326;50.794;6.060;2022-07-23T08:55:01;99983.88;;;23.32;67.04
26719;BME280;14326;50.794;6.060;2022-07-23T08:57:27;99992.81;;;23.34;69.99
26719;BME280;14326;50.794;6.060;2022-07-23T08:59:54;99991.66;;;23.41;70.05
26719;BME280;14326;50.794;6.060;2022-07-23T09:02:21;99996.19;;;23.89;68.21
26719;BME280;14326;50.794;6.060;2022-07-23T09:04:47;100002.09;;;24.23;66.31
26719;BME280;14326;50.794;6.060;2022-07-23T09:07:15;99999.22;;;24.50;61.53
26719;BME280;14326;50.794;6.060;2022-07-23T09:09:42;99996.97;;;24.59;64.41
26719;BME280;14326;50.794;6.060;2022-07-23T09:12:10;100005.72;;;24.45;60.35
26719;BME280;14326;50.794;6.060;2022-07-23T09:14:39;100011.34;;;24.19;65.00
26719;BME280;14326;50.794;6.060;2022-07-23T09:17:10;100007.88;;;24.14;61.89
26719;BME280;14326;50.794;6.060;2022-07-23T09:19:37;100010.31;;;24.22;61.61
26719;BME280;14326;50.794;6.060;2022-07-23T09:22:18;100003.88;;;24.24;61.16
26719;BME280;14326;50.794;6.060;2022-07-23T09:25:04;100000.16;;;24.27;60.48
26719;BME280;14326;50.794;6.060;2022-07-23T09:27:46;99993.63;;;24.31;59.20
26719;BME280;14326;50.794;6.060;2022-07-23T09:30:13;99996.81;;;24.42;60.93
26719;BME280;14326;50.794;6.060;2022-07-23T09:32:40;99992.34;;;24.39;59.18
26719;BME280;14326;50.794;6.060;2022-07-23T09:35:07;99991.34;;;24.64;59.64
26719;BME280;14326;50.794;6.060;2022-07-23T09:37:35;99999.81;;;24.78;59.66
26719;BME280;14326;50.794;6.060;2022-07-23T09:40:06;100001.34;;;24.63;59.71
26719;BME280;14326;50.794;6.060;2022-07-23T09:42:33;99994.47;;;24.75;60.52
26719;BME280;14326;50.794;6.060;2022-07-23T09:45:00;99995.31;;;24.77;59.03
26719;BME280;14326;50.794;6.060;2022-07-23T09:47:28;99991.69;;;24.98;58.37
26719;BME280;14326;50.794;6.060;2022-07-23T09:50:00;99987.91;;;25.02;54.76
26719;BME280;14326;50.794;6.060;2022-07-23T09:52:27;99994.81;;;24.45;55.58
26719;BME280;14326;50.794;6.060;2022-07-23T09:54:59;99983.84;;;24.48;59.29
26719;BME280;14326;50.794;6.060;2022-07-23T09:57:27;99987.56;;;24.68;58.81
26719;BME280;14326;50.794;6.060;2022-07-23T09:59:58;99985.63;;;24.70;57.19
26719;BME280;14326;50.794;6.060;2022-07-23T10:02:28;99977.97;;;25.01;58.48
26719;BME280;14326;50.794;6.060;2022-07-23T10:04:58;99992.78;;;24.94;55.84
26719;BME280;14326;50.794;6.060;2022-07-23T10:07:26;99984.91;;;25.08;54.65
26719;BME280;14326;50.794;6.060;2022-07-23T10:09:56;99987.09;;;25.20;53.90
26719;BME280;14326;50.794;6.060;2022-07-23T10:12:26;99986.25;;;25.18;53.76
26719;BME280;14326;50.794;6.060;2022-07-23T10:15:01;99978.22;;;25.15;54.70
26719;BME280;14326;50.794;6.060;2022-07-23T10:17:30;99977.91;;;25.03;53.59
26719;BME280;14326;50.794;6.060;2022-07-23T10:19:57;99985.66;;;25.32;53.38
26719;BME280;14326;50.794;6.060;2022-07-23T10:22:25;99980.94;;;25.36;51.43
26719;BME280;14326;50.794;6.060;2022-07-23T10:25:00;99983.66;;;25.56;52.81
26719;BME280;14326;50.794;6.060;2022-07-23T10:28:02;99984.88;;;25.88;50.87
26719;BME280;14326;50.794;6.060;2022-07-23T10:30:36;99982.81;;;26.12;50.54
26719;BME280;14326;50.794;6.060;2022-07-23T10:33:17;99980.34;;;26.26;50.33
26719;BME280;14326;50.794;6.060;2022-07-23T10:35:53;99984.00;;;26.43;49.49
26719;BME280;14326;50.794;6.060;2022-07-23T10:38:25;99981.69;;;26.16;50.22
26719;BME280;14326;50.794;6.060;2022-07-23T10:40:56;99980.19;;;25.91;50.60
26719;BME280;14326;50.794;6.060;2022-07-23T10:43:25;99981.78;;;26.14;51.59
26719;BME280;14326;50.794;6.060;2022-07-23T10:45:52;99975.09;;;26.21;51.43
26719;BME280;14326;50.794;6.060;2022-07-23T10:48:20;99971.69;;;26.35;50.68
26719;BME280;14326;50.794;6.060;2022-07-23T10:51:07;99974.25;;;26.57;48.15
26719;BME280;14326;50.794;6.060;2022-07-23T10:53:53;99979.78;;;26.72;48.65
26719;BME280;14326;50.794;6.060;2022-07-23T10:56:51;99976.41;;;26.67;47.97
26719;BME280;14326;50.794;6.060;2022-07-23T10:59:31;99974.69;;;26.47;48.30
26719;BME280;14326;50.794;6.060;2022-07-23T11:02:22;99978.88;;;26.55;47.26
26719;BME280;14326;50.794;6.060;2022-07-23T11:04:51;99976.38;;;26.86;50.80
26719;BME280;14326;50.794;6.060;2022-07-23T11:07:18;99971.31;;;27.13;49.76
26719;BME280;14326;50.794;6.060;2022-07-23T11:09:45;99967.63;;;27.14;46.35
26719;BME280;14326;50.794;6.060;2022-07-23T11:12:32;99974.91;;;27.30;45.21
26719;BME280;14326;50.794;6.060;2022-07-23T11:15:04;99964.22;;;27.60;45.54
26719;BME280;14326;50.794;6.060;2022-07-23T11:17:34;99968.81;;;27.76;43.59
26719;BME280;14326;50.794;6.060;2022-07-23T11:20:17;99967.16;;;27.73;42.51
26719;BME280;14326;50.794;6.060;2022-07-23T11:22:50;99977.91;;;27.26;45.53
26719;BME280;14326;50.794;6.060;2022-07-23T11:25:32;99973.41;;;27.08;45.29
26719;BME280;14326;50.794;6.060;2022-07-23T11:28:11;99977.06;;;27.58;43.71
26719;BME280;14326;50.794;6.060;2022-07-23T11:30:41;99965.88;;;27.63;42.30
26719;BME280;14326;50.794;6.060;2022-07-23T11:33:21;99979.47;;;27.47;42.18
26719;BME280;14326;50.794;6.060;2022-07-23T11:36:01;99972.78;;;27.03;42.18
26719;BME280;14326;50.794;6.060;2022-07-23T11:38:30;99974.94;;;27.13;44.40
26719;BME280;14326;50.794;6.060;2022-07-23T11:40:57;99971.63;;;27.24;42.77
26719;BME280;14326;50.794;6.060;2022-07-23T11:43:24;99974.19;;;27.44;41.25
26719;BME280;14326;50.794;6.060;2022-07-23T11:45:54;99974.72;;;27.68;42.80
26719;BME280;14326;50.794;6.060;2022-07-23T11:48:24;99968.84;;;27.91;40.38
26719;BME280;14326;50.794;6.060;2022-07-23T11:50:52;99972.41;;;28.09;37.83
26719;BME280;14326;50.794;6.060;2022-07-23T11:53:23;99980.47;;;27.79;40.10
26719;BME280;14326;50.794;6.060;2022-07-23T11:55:49;99979.19;;;27.53;39.00
26719;BME280;14326;50.794;6.060;2022-07-23T11:58:16;99972.50;;;27.75;39.10
26719;BME280;14326;50.794;6.060;2022-07-23T12:00:43;99972.78;;;27.70;40.25
26719;BME280;14326;50.794;6.060;2022-07-23T12:03:11;99971.88;;;27.69;42.03
26719;BME280;14326;50.794;6.060;2022-07-23T12:05:38;99969.16;;;27.69;42.25
26719;BME280;14326;50.794;6.060;2022-07-23T12:08:07;99974.06;;;27.63;40.46
26719;BME280;14326;50.794;6.060;2022-07-23T12:10:35;99977.16;;;27.90;41.78
26719;BME280;14326;50.794;6.060;2022-07-23T12:13:04;99974.59;;;28.02;41.50
26719;BME280;14326;50.794;6.060;2022-07-23T12:15:33;99972.13;;;27.32;42.16
26719;BME280;14326;50.794;6.060;2022-07-23T12:18:03;99974.69;;;27.18;44.11
26719;BME280;14326;50.794;6.060;2022-07-23T12:20:33;99965.88;;;27.46;42.49
26719;BME280;14326;50.794;6.060;2022-07-23T12:23:03;99969.34;;;27.49;41.26
26719;BME280;14326;50.794;6.060;2022-07-23T12:25:31;99974.84;;;27.32;41.17
26719;BME280;14326;50.794;6.060;2022-07-23T12:28:03;99973.47;;;27.23;42.23
26719;BME280;14326;50.794;6.060;2022-07-23T12:30:32;99962.78;;;27.53;43.64
26719;BME280;14326;50.794;6.060;2022-07-23T12:32:59;99969.16;;;27.69;40.69
26719;BME280;14326;50.794;6.060;2022-07-23T12:35:33;99960.19;;;27.67;42.92
26719;BME280;14326;50.794;6.060;2022-07-23T12:38:03;99956.66;;;27.81;43.63
26719;BME280;14326;50.794;6.060;2022-07-23T12:40:32;99960.00;;;27.70;42.04
26719;BME280;14326;50.794;6.060;2022-07-23T12:43:01;99961.06;;;27.68;42.53
26719;BME280;14326;50.794;6.060;2022-07-23T12:45:42;99965.44;;;28.03;41.90
26719;BME280;14326;50.794;6.060;2022-07-23T12:48:15;99953.03;;;27.81;41.42
26719;BME280;14326;50.794;6.060;2022-07-23T12:50:49;99955.34;;;27.05;42.83
26719;BME280;14326;50.794;6.060;2022-07-23T12:53:17;99947.34;;;27.35;45.54
26719;BME280;14326;50.794;6.060;2022-07-23T12:55:45;99951.19;;;27.81;44.41
26719;BME280;14326;50.794;6.060;2022-07-23T12:58:14;99956.91;;;28.25;40.78
26719;BME280;14326;50.794;6.060;2022-07-23T13:00:53;99951.09;;;28.16;40.94